createdAt,value
2018-06-28T00:03:41.470Z,89.699997
2018-06-28T00:08:43.453Z,89.699997
2018-06-28T00:13:45.969Z,88.900002
2018-06-28T00:18:48.007Z,88.5
2018-06-28T00:23:51.576Z,88.5
2018-06-28T00:28:52.596Z,89.199997
2018-06-28T00:33:55.988Z,89.199997
2018-06-28T00:38:57.195Z,89.199997
2018-06-28T00:43:59.440Z,89.5
2018-06-28T00:49:01.834Z,89.900002
2018-06-28T00:54:04.188Z,90.300003
2018-06-28T00:59:06.340Z,91.5
2018-06-28T01:04:08.607Z,91.400002
2018-06-28T01:09:12.505Z,91.599998
2018-06-28T01:14:13.339Z,92.400002
2018-06-28T01:19:15.585Z,92.699997
2018-06-28T01:24:17.859Z,93.300003
2018-06-28T01:29:20.116Z,94.599998
2018-06-28T01:34:22.533Z,95.199997
2018-06-28T01:39:24.641Z,95.599998
2018-06-28T01:44:27.130Z,95.900002
2018-06-28T01:49:29.202Z,96.099998
2018-06-28T01:54:31.790Z,96.900002
2018-06-28T01:59:34.041Z,97
2018-06-28T02:04:36.196Z,97.400002
2018-06-28T02:09:38.505Z,97.800003
2018-06-28T02:14:41.910Z,98.5
2018-06-28T02:19:43.115Z,97.800003
2018-06-28T02:24:45.268Z,98.300003
2018-06-28T02:29:47.627Z,99
2018-06-28T02:34:49.972Z,99.099998
2018-06-28T02:39:52.372Z,99.599998
2018-06-28T02:44:54.465Z,99.900002
2018-06-28T02:49:56.790Z,99.900002
2018-06-28T02:54:59.260Z,99.900002
2018-06-28T03:00:01.411Z,99.900002
2018-06-28T03:05:03.691Z,99.900002
2018-06-28T03:10:06.021Z,99.900002
2018-06-28T03:15:08.256Z,99.900002
2018-06-28T03:20:10.623Z,99.900002
2018-06-28T03:25:12.952Z,99.900002
2018-06-28T03:30:15.227Z,99.900002
2018-06-28T03:35:18.871Z,99.900002
2018-06-28T03:40:19.867Z,99.900002
2018-06-28T03:45:22.091Z,99.900002
2018-06-28T03:50:24.482Z,99.900002
2018-06-28T03:55:26.684Z,99.900002
2018-06-28T04:00:30.302Z,99.900002
2018-06-28T04:05:31.274Z,99.900002
2018-06-28T04:10:33.604Z,99.900002
2018-06-28T04:15:35.847Z,99.900002
2018-06-28T04:20:38.105Z,99.900002
2018-06-28T04:25:40.593Z,99.900002
2018-06-28T04:30:42.696Z,99.900002
2018-06-28T04:35:45.112Z,99.900002
2018-06-28T04:40:47.382Z,99.900002
2018-06-28T04:45:51.457Z,99.900002
2018-06-28T04:50:52.019Z,99.900002
2018-06-28T04:55:54.281Z,98.699997
2018-06-28T05:00:56.616Z,97.300003
2018-06-28T05:06:00.305Z,95.5
2018-06-28T05:11:01.077Z,95.5
2018-06-28T05:16:03.339Z,94.699997
2018-06-28T05:21:05.742Z,92.199997
2018-06-28T05:26:08.046Z,92.599998
2018-06-28T05:31:10.269Z,90.099998
2018-06-28T05:36:12.686Z,89.699997
2018-06-28T05:41:15.008Z,88.400002
2018-06-28T05:46:17.132Z,86.599998
2018-06-28T05:51:20.895Z,84.300003
2018-06-28T05:56:21.679Z,84.099998
2018-06-28T06:01:24.038Z,81.099998
2018-06-28T06:06:26.357Z,80
2018-06-28T06:11:28.628Z,79.400002
2018-06-28T06:16:30.888Z,75.900002
2018-06-28T06:21:33.321Z,77.800003
2018-06-28T06:26:35.585Z,75.800003
2018-06-28T06:31:37.772Z,74.300003
2018-06-28T06:36:40.172Z,74.900002
2018-06-28T06:41:42.332Z,73.400002
2018-06-28T06:46:44.665Z,70.400002
2018-06-28T06:51:48.563Z,71.800003
2018-06-28T06:56:49.262Z,70.199997
2018-06-28T07:01:52.980Z,66.400002
2018-06-28T07:06:55.096Z,66.199997
2018-06-28T07:11:56.260Z,62.700001
2018-06-28T07:16:58.420Z,60.299999
2018-06-28T07:22:00.851Z,62.200001
2018-06-28T07:27:03.043Z,60.099998
2018-06-28T07:32:05.461Z,62.200001
2018-06-28T07:37:07.641Z,60
2018-06-28T07:42:09.914Z,55.400002
2018-06-28T07:47:14.034Z,55.700001
2018-06-28T07:52:14.578Z,55.200001
2018-06-28T07:57:17.016Z,54.700001
2018-06-28T08:02:19.073Z,53.099998
2018-06-28T08:07:21.502Z,50.200001
2018-06-28T08:12:23.604Z,51.099998
2018-06-28T08:17:26.184Z,49.5
2018-06-28T08:22:28.204Z,45
2018-06-28T08:27:30.517Z,47.799999
2018-06-28T08:32:33.048Z,45.099998
2018-06-28T08:37:37.528Z,48.799999
2018-06-28T08:47:39.810Z,46.700001
2018-06-28T08:52:42.055Z,40.400002
2018-06-28T08:57:45.442Z,44.400002
2018-06-28T09:02:46.590Z,40.5
2018-06-28T09:07:48.909Z,41.700001
2018-06-28T09:12:51.122Z,41.299999
2018-06-28T09:17:53.655Z,40.900002
2018-06-28T09:22:55.777Z,38.900002
2018-06-28T09:27:58.058Z,39.400002
2018-06-28T09:33:02.048Z,39.299999
2018-06-28T09:38:02.628Z,35.400002
2018-06-28T09:43:05.002Z,34.799999
2018-06-28T09:48:07.372Z,35.400002
2018-06-28T09:53:09.606Z,34.900002
2018-06-28T09:58:11.792Z,32.5
2018-06-28T10:03:14.214Z,35.900002
2018-06-28T10:08:16.344Z,35.400002
2018-06-28T10:13:20.589Z,35.799999
2018-06-28T10:18:21.212Z,32
2018-06-28T10:23:23.268Z,34.400002
2018-06-28T10:28:25.639Z,32.599998
2018-06-28T10:33:27.974Z,32
2018-06-28T10:38:30.191Z,34.099998
2018-06-28T10:43:32.744Z,33.5
2018-06-28T10:48:35.020Z,37.599998
2018-06-28T10:53:37.072Z,32.099998
2018-06-28T10:58:39.459Z,31.6
2018-06-28T11:03:41.676Z,36.799999
2018-06-28T11:08:43.888Z,30.6
2018-06-28T11:13:51.919Z,31.5
2018-06-28T11:18:48.544Z,30.5
2018-06-28T11:23:50.846Z,29.700001
2018-06-28T11:28:53.228Z,34.099998
2018-06-28T11:33:55.548Z,32.200001
2018-06-28T11:38:59.619Z,33.599998
2018-06-28T11:44:00.067Z,31.200001
2018-06-28T11:49:02.460Z,34
2018-06-28T11:54:04.630Z,30.6
2018-06-28T11:59:06.876Z,32
2018-06-28T12:04:09.224Z,29.5
2018-06-28T12:09:11.547Z,32.299999
2018-06-28T12:14:13.723Z,34.599998
2018-06-28T12:19:16.279Z,33.200001
2018-06-28T12:24:18.403Z,31
2018-06-28T12:29:20.799Z,32.099998
2018-06-28T12:34:23.045Z,34.799999
2018-06-28T12:39:25.237Z,35.200001
2018-06-28T12:44:27.760Z,39.200001
2018-06-28T12:49:30.030Z,34.299999
2018-06-28T12:54:32.237Z,33.5
2018-06-28T12:59:34.521Z,30.9
2018-06-28T13:04:36.782Z,36.900002
2018-06-28T13:09:39.073Z,35
2018-06-28T13:14:41.260Z,34.099998
2018-06-28T13:24:45.969Z,30.200001
2018-06-28T13:29:48.165Z,30.6
2018-06-28T13:34:50.594Z,28.9
2018-06-28T13:39:52.816Z,27.1
2018-06-28T13:44:55.150Z,29.299999
2018-06-28T13:49:57.390Z,31.4
2018-06-28T13:54:59.713Z,28.5
2018-06-28T14:00:01.953Z,32.799999
2018-06-28T14:05:04.346Z,29.700001
2018-06-28T14:10:06.653Z,31
2018-06-28T14:20:11.265Z,30.799999
2018-06-28T14:25:13.356Z,29.299999
2018-06-28T14:30:15.735Z,29.200001
2018-06-28T14:35:24.121Z,30
2018-06-28T14:40:20.341Z,28.9
2018-06-28T14:45:22.676Z,28.799999
2018-06-28T14:50:24.871Z,35.400002
2018-06-28T14:55:27.284Z,35.099998
2018-06-28T15:00:29.430Z,30.4
2018-06-28T15:05:31.727Z,30.799999
2018-06-28T15:10:34.209Z,31.6
2018-06-28T15:15:36.770Z,31.700001
2018-06-28T15:20:38.692Z,36
2018-06-28T15:25:41.035Z,32.799999
2018-06-28T15:30:43.357Z,31.4
2018-06-28T15:35:45.604Z,30.200001
2018-06-28T15:40:47.900Z,32.5
2018-06-28T15:45:50.137Z,33.799999
2018-06-28T15:50:52.543Z,34.599998
2018-06-28T15:55:54.786Z,39.299999
2018-06-28T16:00:56.998Z,36.400002
2018-06-28T16:05:59.428Z,33.299999
2018-06-28T16:11:01.714Z,32.799999
2018-06-28T16:16:03.910Z,35.400002
2018-06-28T16:21:06.347Z,40.400002
2018-06-28T16:26:08.667Z,35
2018-06-28T16:31:10.850Z,36.400002
2018-06-28T16:36:13.057Z,33.299999
2018-06-28T16:41:15.491Z,36.700001
2018-06-28T16:46:18.079Z,34.200001
2018-06-28T16:51:19.973Z,36.900002
2018-06-28T16:56:22.288Z,34.799999
2018-06-28T17:01:24.673Z,35.099998
2018-06-28T17:06:27.514Z,34.299999
2018-06-28T17:11:29.248Z,33.400002
2018-06-28T17:16:31.475Z,34.099998
2018-06-28T17:21:33.751Z,36.299999
2018-06-28T17:26:36.111Z,36.799999
2018-06-28T17:31:38.334Z,38.400002
2018-06-28T17:36:40.613Z,37
2018-06-28T17:41:43.165Z,35.700001
2018-06-28T17:46:49.203Z,36.5
2018-06-28T17:51:47.486Z,37.700001
2018-06-28T17:56:49.864Z,39.400002
2018-06-28T18:01:52.044Z,40.200001
2018-06-28T18:06:54.417Z,41.799999
2018-06-28T18:11:56.796Z,38.299999
2018-06-28T18:16:58.940Z,40.599998
2018-06-28T18:22:01.331Z,38.5
2018-06-28T18:27:04.706Z,39.099998
2018-06-28T18:32:05.791Z,39
2018-06-28T18:37:09.260Z,40
2018-06-28T18:42:10.609Z,40.5
2018-06-28T18:47:12.728Z,40.099998
2018-06-28T18:52:15.013Z,39.200001
2018-06-28T18:57:18.293Z,40.799999
2018-06-28T19:02:19.711Z,46.299999
2018-06-28T19:07:21.948Z,50.099998
2018-06-28T19:12:24.275Z,50.5
2018-06-28T19:17:26.559Z,50.700001
2018-06-28T19:22:28.775Z,51.299999
2018-06-28T19:27:31.070Z,53
2018-06-28T19:32:33.597Z,53.400002
2018-06-28T19:37:35.706Z,53.5
2018-06-28T19:42:37.982Z,54.099998
2018-06-28T19:47:40.355Z,54.900002
2018-06-28T19:52:42.501Z,55.599998
2018-06-28T19:57:44.970Z,56.299999
2018-06-28T20:02:47.338Z,56.5
2018-06-28T20:07:49.420Z,57.200001
2018-06-28T20:12:52.883Z,57.700001
2018-06-28T20:17:54.119Z,58.900002
2018-06-28T20:22:56.415Z,59.799999
2018-06-28T20:27:58.634Z,60.799999
2018-06-28T20:33:00.979Z,61.799999
2018-06-28T20:38:03.237Z,62.599998
2018-06-28T20:43:05.674Z,64.099998
2018-06-28T20:48:08.898Z,64.099998
2018-06-28T20:53:11.451Z,65.300003
2018-06-28T20:58:12.549Z,65.599998
2018-06-28T21:03:14.946Z,66.400002
2018-06-28T21:08:16.991Z,66.5
2018-06-28T21:13:19.304Z,67.400002
2018-06-28T21:18:21.701Z,67.800003
2018-06-28T21:23:23.827Z,68.400002
2018-06-28T21:28:26.196Z,68.699997
2018-06-28T21:33:28.529Z,68.800003
2018-06-28T21:38:30.669Z,68.800003
2018-06-28T21:43:33.047Z,68
2018-06-28T21:48:35.460Z,68.800003
2018-06-28T21:53:37.670Z,67.800003
2018-06-28T21:58:39.981Z,68.5
2018-06-28T22:03:42.285Z,69.599998
2018-06-28T22:08:44.514Z,70.199997
2018-06-28T22:13:46.802Z,71.099998
2018-06-28T22:18:49.119Z,70.199997
2018-06-28T22:23:51.426Z,70
2018-06-28T22:28:54.193Z,70.099998
2018-06-28T22:33:56.012Z,70.199997
2018-06-28T22:38:58.332Z,69.699997
2018-06-28T22:44:00.574Z,70.199997
2018-06-28T22:49:03.060Z,70.400002
2018-06-28T22:54:05.220Z,70
2018-06-28T22:59:08.901Z,69.900002
2018-06-28T23:04:09.748Z,69.300003
2018-06-28T23:09:12.154Z,68.5
2018-06-28T23:14:14.328Z,68.800003
2018-06-28T23:19:16.663Z,68
2018-06-28T23:24:19.007Z,68.800003
2018-06-28T23:29:21.281Z,68.300003
2018-06-28T23:34:25.245Z,67.5
2018-06-28T23:39:25.882Z,67
2018-06-28T23:44:28.120Z,67.199997
2018-06-28T23:49:31.863Z,67.599998
2018-06-28T23:54:32.826Z,67.800003
2018-06-28T23:59:35.039Z,68.800003
